This is the latest recevied weather packets stored in our database for station/object K9YK-13. If no packets are shown the sender has not sent any weather packets the latest 10 day(s).
| Time | Temp. | Humidity | Pressure | Rain* | Wind** | Luminosity | Snow |
|---|---|---|---|---|---|---|---|
| 1777956670 | 14.44° C | 92% | 0 hPa | 0 mm | - | - | - |
| 1777956370 | 15° C | 92% | 0 hPa | 0 mm | - | - | - |
| 1777956070 | 14.44° C | 92% | 0 hPa | 0 mm | - | - | - |
| 1777955770 | 13.89° C | 92% | 0 hPa | 0 mm | - | - | - |
| 1777955470 | 14.44° C | 92% | 0 hPa | 0 mm | - | - | - |
| 1777955170 | 14.44° C | 91% | 0 hPa | 0 mm | - | - | - |
| 1777954870 | 14.44° C | 91% | 0 hPa | 0 mm | - | - | - |
| 1777954570 | 14.44° C | 90% | 0 hPa | 0 mm | - | - | - |
| 1777954270 | 15° C | 88% | 0 hPa | 0 mm | - | - | - |
| 1777953970 | 16.11° C | 83% | 0 hPa | 0 mm | - | - | - |
| 1777953370 | 18.89° C | 72% | 0 hPa | 0 mm | - | - | - |
| 1777943470 | 22.22° C | 53% | 0 hPa | 0 mm | - | - | - |
| 1777942270 | 23.33° C | 51% | 0 hPa | 0 mm | - | - | - |
| 1777941370 | 23.33° C | 50% | 0 hPa | 0 mm | - | - | - |
| 1777941070 | 22.78° C | 50% | 0 hPa | 0 mm | - | - | - |
| 1777940770 | 23.89° C | 49% | 0 hPa | 0 mm | - | - | - |
| 1777933870 | 25° C | 46% | 0 hPa | 0 mm | - | - | - |
| 1777932970 | 25.56° C | 47% | 0 hPa | 0 mm | - | - | - |
| 1777931170 | 26.11° C | 48% | 0 hPa | 0 mm | - | - | - |
| 1777929970 | 25.56° C | 51% | 0 hPa | 0 mm | - | - | - |
| 1777929670 | 25.56° C | 53% | 0 hPa | 0 mm | - | - | - |
| 1777929370 | 25.56° C | 54% | 0 hPa | 0 mm | - | - | - |
| 1777926970 | 24.44° C | 57% | 0 hPa | 0 mm | - | - | - |
| 1777923070 | 26.11° C | 50% | 0 hPa | 0 mm | - | - | - |
| 1777922770 | 25.56° C | 49% | 0 hPa | 0 mm | - | - | - |
* Rain latest hour (hover to see other rain measurements)
** Current wind speed in m/s (hover to see current wind gust speed)